Time;durP1;ratioP1;P1;durP2;ratioP2;P2;SDS_P1;SDS_P2;PMS_P1;PMS_P2;Temp;Humidity;BMP_temperature;BMP_pressure;BME280_temperature;BME280_humidity;BME280_pressure;Samples;Min_cycle;Max_cycle;Signal;HPM_P1;HPM_P2
2024/03/25 00:01:04;;;;;;;;;;;5.60;99.90;;;;;;4954253;28;20271;-77
2024/03/25 00:03:29;;;;;;;;;;;7.00;99.90;;;;;;4936375;28;19928;-78
2024/03/25 00:05:55;;;;;;;;;;;5.60;99.90;;;;;;4935853;28;20433;-77
2024/03/25 00:08:21;;;;;;;;;;;5.60;99.90;;;;;;4956204;28;19930;-77
2024/03/25 00:10:46;;;;;;;;;;;5.60;99.90;;;;;;4954450;28;20004;-77
2024/03/25 00:13:12;;;;;;;;;;;5.60;99.90;;;;;;4952321;28;19922;-78
2024/03/25 00:15:37;;;;;;;;;;;5.50;99.90;;;;;;4951748;28;20287;-77
2024/03/25 00:18:06;;;;;;;;;;;5.60;99.90;;;;;;4935210;28;20276;-77
2024/03/25 00:20:32;;;;;;;;;;;5.60;99.90;;;;;;4968223;28;19922;-77
2024/03/25 00:22:57;;;;;;;;;;;5.60;99.90;;;;;;4952482;28;19924;-75
2024/03/25 00:25:23;;;;;;;;;;;5.60;99.90;;;;;;4955443;28;19918;-76
2024/03/25 00:27:48;;;;;;;;;;;4.90;99.90;;;;;;4939073;28;19929;-76
2024/03/25 00:30:14;;;;;;;;;;;6.40;99.90;;;;;;4972934;28;19918;-75
2024/03/25 00:32:39;;;;;;;;;;;5.60;99.90;;;;;;4955021;28;19972;-76
2024/03/25 00:35:05;;;;;;;;;;;5.50;99.90;;;;;;4949621;28;20384;-76
2024/03/25 00:37:31;;;;;;;;;;;5.60;99.90;;;;;;4938167;28;19933;-76
2024/03/25 00:39:57;;;;;;;;;;;5.60;99.90;;;;;;4953110;28;20008;-76
2024/03/25 00:42:23;;;;;;;;;;;5.60;99.90;;;;;;4966482;28;19929;-76
2024/03/25 00:44:49;;;;;;;;;;;5.50;99.90;;;;;;4950973;28;19918;-76
2024/03/25 00:47:14;;;;;;;;;;;5.50;99.90;;;;;;4951605;28;20045;-76
2024/03/25 00:49:40;;;;;;;;;;;5.50;99.90;;;;;;4954729;28;19962;-76
2024/03/25 00:52:05;;;;;;;;;;;5.50;99.90;;;;;;4967887;28;20393;-76
2024/03/25 00:54:31;;;;;;;;;;;5.60;99.90;;;;;;4942205;28;20447;-76
2024/03/25 00:56:56;;;;;;;;;;;5.70;99.90;;;;;;4937161;28;19948;-76
2024/03/25 00:59:22;;;;;;;;;;;5.70;99.90;;;;;;4939490;28;19941;-76
2024/03/25 01:01:48;;;;;;;;;;;6.30;99.90;;;;;;4969576;28;19922;-76
2024/03/25 01:04:13;;;;;;;;;;;5.60;99.90;;;;;;4937118;28;19918;-76
2024/03/25 01:06:39;;;;;;;;;;;5.60;99.90;;;;;;4969789;28;19922;-75
2024/03/25 01:09:04;;;;;;;;;;;5.60;99.90;;;;;;4971687;28;20394;-76
2024/03/25 01:11:30;;;;;;;;;;;5.70;99.90;;;;;;4953639;28;19980;-76
2024/03/25 01:13:56;;;;;;;;;;;5.70;99.90;;;;;;4939508;28;19921;-77
2024/03/25 01:16:21;;;;;;;;;;;5.70;99.90;;;;;;4969347;28;19947;-76
2024/03/25 01:18:48;;;;;;;;;;;5.80;99.90;;;;;;4936947;28;19918;-76
2024/03/25 01:21:14;;;;;;;;;;;5.80;99.90;;;;;;4952848;28;20264;-77
2024/03/25 01:23:40;;;;;;;;;;;5.80;99.90;;;;;;4971011;28;19918;-77
2024/03/25 01:26:06;;;;;;;;;;;6.20;99.90;;;;;;4968671;28;19921;-76
2024/03/25 01:28:31;;;;;;;;;;;5.80;99.90;;;;;;4966639;28;19918;-77
2024/03/25 01:30:58;;;;;;;;;;;5.80;99.90;;;;;;4921879;28;19918;-77
2024/03/25 01:33:23;;;;;;;;;;;5.80;99.90;;;;;;4954548;28;20387;-77
2024/03/25 01:35:49;;;;;;;;;;;5.80;99.90;;;;;;4950942;28;19968;-76
2024/03/25 01:38:14;;;;;;;;;;;5.90;99.90;;;;;;4945234;28;19918;-78
2024/03/25 01:40:40;;;;;;;;;;;6.00;99.90;;;;;;4970186;28;19918;-78
2024/03/25 01:43:06;;;;;;;;;;;5.90;99.90;;;;;;4953132;28;19921;-76
2024/03/25 01:45:32;;;;;;;;;;;5.90;99.90;;;;;;4940810;28;19925;-78
2024/03/25 01:47:59;;;;;;;;;;;7.10;99.90;;;;;;4933694;28;19945;-78
2024/03/25 01:50:25;;;;;;;;;;;5.90;99.90;;;;;;4965754;28;19972;-79
2024/03/25 01:52:51;;;;;;;;;;;5.90;99.90;;;;;;4953726;28;19922;-78
2024/03/25 01:55:20;;;;;;;;;;;5.90;99.90;;;;;;4953909;28;19922;-78
2024/03/25 01:57:46;;;;;;;;;;;5.90;99.90;;;;;;4953099;28;20733;-78
2024/03/25 02:00:12;;;;;;;;;;;5.90;99.90;;;;;;4927005;28;20315;-77
2024/03/25 02:02:41;;;;;;;;;;;5.80;99.90;;;;;;4966879;28;19925;-79
2024/03/25 02:05:07;;;;;;;;;;;5.80;99.90;;;;;;4947374;28;19925;-78
2024/03/25 02:07:35;;;;;;;;;;;5.80;99.90;;;;;;4946740;28;19929;-77
2024/03/25 02:10:01;;;;;;;;;;;5.80;99.90;;;;;;4952965;28;19973;-78
2024/03/25 02:12:27;;;;;;;;;;;5.80;99.90;;;;;;4953364;28;20023;-78
2024/03/25 02:14:52;;;;;;;;;;;5.80;99.90;;;;;;4970982;28;20414;-79
2024/03/25 02:17:18;;;;;;;;;;;5.80;99.90;;;;;;4952672;28;20013;-78
2024/03/25 02:19:44;;;;;;;;;;;5.80;99.90;;;;;;4930668;28;19972;-78
2024/03/25 02:22:09;;;;;;;;;;;5.90;99.90;;;;;;4954252;28;19918;-78
2024/03/25 02:24:35;;;;;;;;;;;5.90;99.90;;;;;;4953506;28;19926;-78
2024/03/25 02:27:00;;;;;;;;;;;5.90;99.90;;;;;;4937430;28;19953;-78
2024/03/25 02:29:33;;;;;;;;;;;6.00;99.90;;;;;;4950043;28;20378;-77
2024/03/25 02:31:58;;;;;;;;;;;5.90;99.90;;;;;;4952649;28;19920;-78
2024/03/25 02:34:24;;;;;;;;;;;5.90;99.90;;;;;;4955684;28;19929;-78
2024/03/25 02:36:49;;;;;;;;;;;5.80;99.90;;;;;;4945860;28;20384;-78
2024/03/25 02:39:15;;;;;;;;;;;6.60;99.90;;;;;;4966620;28;19925;-77
2024/03/25 02:41:41;;;;;;;;;;;5.80;99.90;;;;;;4971455;28;19929;-78
2024/03/25 02:44:06;;;;;;;;;;;5.80;99.90;;;;;;4955941;28;19917;-78
2024/03/25 02:46:33;;;;;;;;;;;6.20;99.90;;;;;;4955662;28;19948;-78
2024/03/25 02:48:59;;;;;;;;;;;6.20;99.90;;;;;;4953717;28;20321;-78
2024/03/25 02:51:24;;;;;;;;;;;5.70;99.90;;;;;;4957144;28;19925;-77
2024/03/25 02:53:50;;;;;;;;;;;5.70;99.90;;;;;;4989451;28;19926;-77
2024/03/25 02:56:16;;;;;;;;;;;5.60;99.90;;;;;;4950167;28;19925;-77
2024/03/25 02:58:42;;;;;;;;;;;6.30;99.90;;;;;;4969120;28;19940;-77
2024/03/25 03:01:07;;;;;;;;;;;5.50;99.90;;;;;;4939598;28;19918;-78
2024/03/25 03:03:33;;;;;;;;;;;6.50;99.90;;;;;;4989352;28;19928;-78
2024/03/25 03:05:58;;;;;;;;;;;5.20;99.90;;;;;;4971874;28;19926;-78
2024/03/25 03:08:24;;;;;;;;;;;5.20;99.90;;;;;;4972828;28;20439;-78
2024/03/25 03:10:49;;;;;;;;;;;5.20;99.90;;;;;;4955613;28;19918;-77
2024/03/25 03:13:15;;;;;;;;;;;5.20;99.90;;;;;;4987333;28;20302;-78
2024/03/25 03:15:44;;;;;;;;;;;5.20;99.90;;;;;;4971713;28;19952;-78
2024/03/25 03:18:10;;;;;;;;;;;5.20;99.90;;;;;;4972037;28;19944;-78
2024/03/25 03:20:35;;;;;;;;;;;5.60;99.90;;;;;;4964040;28;20509;-78
2024/03/25 03:23:01;;;;;;;;;;;5.20;99.90;;;;;;4972214;28;19917;-78
2024/03/25 03:25:26;;;;;;;;;;;5.10;99.90;;;;;;4955407;28;19922;-77
2024/03/25 03:27:52;;;;;;;;;;;5.70;99.90;;;;;;4955652;28;20012;-78
2024/03/25 03:30:17;;;;;;;;;;;5.20;99.90;;;;;;4986550;28;20326;-77
2024/03/25 03:32:43;;;;;;;;;;;5.10;99.90;;;;;;4955067;28;19924;-77
2024/03/25 03:35:08;;;;;;;;;;;5.20;99.90;;;;;;4978755;28;19962;-77
2024/03/25 03:37:34;;;;;;;;;;;5.20;99.90;;;;;;4924753;29;19950;-78
2024/03/25 03:39:59;;;;;;;;;;;5.20;99.90;;;;;;4935894;28;20347;-78
2024/03/25 03:42:25;;;;;;;;;;;5.30;99.90;;;;;;4930767;28;19926;-78
2024/03/25 03:44:50;;;;;;;;;;;5.20;99.90;;;;;;4951916;28;19918;-76
2024/03/25 03:47:16;;;;;;;;;;;5.20;99.90;;;;;;4969983;28;20036;-77
2024/03/25 03:49:42;;;;;;;;;;;5.80;99.90;;;;;;4952246;28;20339;-77
2024/03/25 03:52:08;;;;;;;;;;;5.30;99.90;;;;;;4951753;28;19926;-77
2024/03/25 03:54:33;;;;;;;;;;;5.30;99.90;;;;;;4927131;28;19933;-77
2024/03/25 03:56:59;;;;;;;;;;;5.20;99.90;;;;;;4951214;28;19918;-77
2024/03/25 03:59:25;;;;;;;;;;;5.20;99.90;;;;;;4954541;28;20001;-77
2024/03/25 04:01:51;;;;;;;;;;;5.20;99.90;;;;;;4954949;28;20375;-77
2024/03/25 04:04:17;;;;;;;;;;;5.20;99.90;;;;;;4916093;28;19926;-77
2024/03/25 04:06:42;;;;;;;;;;;5.20;99.90;;;;;;4955499;28;20380;-77
2024/03/25 04:09:09;;;;;;;;;;;5.40;99.90;;;;;;4954706;28;19930;-77
2024/03/25 04:11:38;;;;;;;;;;;5.20;99.90;;;;;;4955212;28;19918;-77
2024/03/25 04:14:03;;;;;;;;;;;5.20;99.90;;;;;;4937721;28;19929;-77
2024/03/25 04:16:30;;;;;;;;;;;5.20;99.90;;;;;;4955100;28;19918;-78
2024/03/25 04:18:56;;;;;;;;;;;5.60;99.90;;;;;;4955201;28;19925;-78
2024/03/25 04:21:22;;;;;;;;;;;5.20;99.90;;;;;;4956300;28;20000;-77
2024/03/25 04:23:49;;;;;;;;;;;5.30;99.90;;;;;;4944827;28;20034;-78
2024/03/25 04:26:15;;;;;;;;;;;5.20;99.90;;;;;;4954781;28;19965;-77
2024/03/25 04:28:40;;;;;;;;;;;5.20;99.90;;;;;;4955676;28;20021;-78
2024/03/25 04:31:07;;;;;;;;;;;5.30;99.90;;;;;;4955243;28;19976;-78
2024/03/25 04:33:33;;;;;;;;;;;5.20;99.90;;;;;;4954902;28;20124;-78
2024/03/25 04:35:58;;;;;;;;;;;5.20;99.90;;;;;;4953398;28;20016;-76
2024/03/25 04:38:24;;;;;;;;;;;6.40;99.90;;;;;;4974778;28;19925;-77
2024/03/25 04:40:50;;;;;;;;;;;6.10;99.90;;;;;;4974658;28;19968;-77
2024/03/25 04:43:15;;;;;;;;;;;5.20;99.90;;;;;;4933539;28;20066;-77
2024/03/25 04:45:41;;;;;;;;;;;5.20;99.90;;;;;;4967585;28;20012;-77
2024/03/25 04:48:10;;;;;;;;;;;5.20;99.90;;;;;;4984039;28;20001;-77
2024/03/25 04:50:35;;;;;;;;;;;5.20;99.90;;;;;;4957543;28;19964;-77
2024/03/25 04:53:01;;;;;;;;;;;5.20;99.90;;;;;;4968621;28;19918;-78
2024/03/25 04:55:26;;;;;;;;;;;5.70;99.90;;;;;;4958375;28;20422;-77
2024/03/25 04:57:52;;;;;;;;;;;5.80;99.90;;;;;;4971237;28;19918;-77
2024/03/25 05:00:18;;;;;;;;;;;5.10;99.90;;;;;;4973106;28;19925;-77
2024/03/25 05:02:43;;;;;;;;;;;5.20;99.90;;;;;;4965987;28;20051;-77
2024/03/25 05:05:09;;;;;;;;;;;5.60;99.90;;;;;;4974056;28;19925;-77
2024/03/25 05:07:35;;;;;;;;;;;5.20;99.90;;;;;;4973904;28;19930;-77
2024/03/25 05:10:01;;;;;;;;;;;6.10;99.90;;;;;;4957369;28;19917;-77
2024/03/25 05:12:29;;;;;;;;;;;5.10;99.90;;;;;;4956561;28;19941;-77
2024/03/25 05:14:55;;;;;;;;;;;5.20;99.90;;;;;;4933344;28;20341;-77
2024/03/25 05:17:21;;;;;;;;;;;5.10;99.90;;;;;;4964930;28;20448;-77
2024/03/25 05:19:47;;;;;;;;;;;6.10;99.90;;;;;;4957654;28;19984;-79
2024/03/25 05:22:12;;;;;;;;;;;5.10;99.90;;;;;;4972342;28;19949;-77
2024/03/25 05:24:38;;;;;;;;;;;5.10;99.90;;;;;;4956634;28;19925;-78
2024/03/25 05:27:03;;;;;;;;;;;5.00;99.90;;;;;;4955534;28;19929;-77
2024/03/25 05:29:29;;;;;;;;;;;5.00;99.90;;;;;;4972121;28;19922;-77
2024/03/25 05:31:56;;;;;;;;;;;4.90;99.90;;;;;;4973828;28;19921;-77
2024/03/25 05:34:22;;;;;;;;;;;4.80;99.90;;;;;;4957743;28;20327;-78
2024/03/25 05:36:47;;;;;;;;;;;4.70;99.90;;;;;;4973142;28;19925;-77
2024/03/25 05:39:13;;;;;;;;;;;4.70;99.90;;;;;;4989496;28;19918;-76
2024/03/25 05:41:38;;;;;;;;;;;4.70;99.90;;;;;;4956036;28;19924;-77
2024/03/25 05:44:04;;;;;;;;;;;4.70;99.90;;;;;;4965229;28;19964;-77
2024/03/25 05:46:30;;;;;;;;;;;4.70;99.90;;;;;;4950181;28;20306;-76
2024/03/25 05:48:55;;;;;;;;;;;5.20;99.90;;;;;;4989802;28;19958;-77
2024/03/25 05:51:21;;;;;;;;;;;5.10;99.90;;;;;;4949909;28;19922;-77
2024/03/25 05:53:46;;;;;;;;;;;4.90;99.90;;;;;;4956971;28;19929;-77
2024/03/25 05:56:12;;;;;;;;;;;6.10;99.90;;;;;;4937659;28;19928;-77
2024/03/25 05:58:37;;;;;;;;;;;5.00;99.90;;;;;;4956243;28;20295;-77
2024/03/25 06:01:04;;;;;;;;;;;5.80;99.90;;;;;;4969554;28;19918;-76
2024/03/25 06:03:29;;;;;;;;;;;5.90;99.90;;;;;;4990734;28;19918;-76
2024/03/25 06:05:55;;;;;;;;;;;5.20;99.90;;;;;;4972606;28;20032;-76
2024/03/25 06:08:24;;;;;;;;;;;5.60;99.90;;;;;;4990305;28;19922;-76
2024/03/25 06:10:50;;;;;;;;;;;6.10;99.90;;;;;;4957408;28;19924;-76
2024/03/25 06:13:15;;;;;;;;;;;5.70;99.90;;;;;;4971901;28;19925;-76
2024/03/25 06:15:41;;;;;;;;;;;5.30;99.90;;;;;;4971637;28;20315;-76
2024/03/25 06:18:07;;;;;;;;;;;5.30;99.90;;;;;;4972397;28;19926;-76
2024/03/25 06:20:32;;;;;;;;;;;5.30;99.90;;;;;;4972796;28;20028;-76
2024/03/25 06:22:58;;;;;;;;;;;5.40;99.90;;;;;;4989825;28;19945;-76
2024/03/25 06:25:23;;;;;;;;;;;5.50;99.90;;;;;;4989855;28;20357;-77
2024/03/25 06:27:49;;;;;;;;;;;5.50;99.90;;;;;;4972713;28;19921;-76
2024/03/25 06:35:43;;;;;;;;;;;5.70;99.90;;;;;;4987433;28;19932;-78
2024/03/25 06:38:09;;;;;;;;;;;6.00;99.90;;;;;;4956653;28;19917;-78
2024/03/25 06:40:35;;;;;;;;;;;5.70;99.90;;;;;;4938305;28;19964;-77
2024/03/25 06:43:00;;;;;;;;;;;5.70;99.90;;;;;;4940861;28;19933;-77
2024/03/25 06:45:26;;;;;;;;;;;5.70;99.90;;;;;;4989569;28;20433;-76
2024/03/25 06:47:52;;;;;;;;;;;5.70;99.90;;;;;;4978031;28;19988;-76
2024/03/25 06:50:17;;;;;;;;;;;5.70;99.90;;;;;;4965349;28;19930;-77
2024/03/25 06:52:43;;;;;;;;;;;5.70;99.90;;;;;;4961277;28;19992;-77
2024/03/25 06:55:08;;;;;;;;;;;5.70;99.90;;;;;;4971101;28;19925;-77
2024/03/25 06:57:34;;;;;;;;;;;5.90;99.90;;;;;;4944003;28;19922;-77
2024/03/25 06:59:59;;;;;;;;;;;6.00;99.90;;;;;;4955656;28;19925;-78
2024/03/25 07:02:25;;;;;;;;;;;6.20;99.90;;;;;;4939005;28;20032;-77
2024/03/25 07:04:50;;;;;;;;;;;6.40;99.90;;;;;;4958787;28;19926;-79
2024/03/25 07:07:16;;;;;;;;;;;6.40;99.90;;;;;;4942851;28;20008;-79
2024/03/25 07:09:42;;;;;;;;;;;7.10;99.90;;;;;;4955045;28;19925;-78
2024/03/25 07:12:07;;;;;;;;;;;6.50;99.90;;;;;;4955449;28;19918;-79
2024/03/25 07:14:33;;;;;;;;;;;6.40;99.90;;;;;;4953789;28;19968;-79
2024/03/25 07:16:58;;;;;;;;;;;6.40;99.90;;;;;;4939823;28;19929;-79
2024/03/25 07:19:24;;;;;;;;;;;7.20;99.90;;;;;;4970605;28;19917;-79
2024/03/25 07:21:49;;;;;;;;;;;6.30;99.90;;;;;;4969539;28;19917;-78
2024/03/25 07:24:15;;;;;;;;;;;6.30;99.90;;;;;;4928910;28;19994;-77
2024/03/25 07:26:41;;;;;;;;;;;6.30;99.90;;;;;;4965975;28;20263;-78
2024/03/25 07:29:06;;;;;;;;;;;6.30;99.90;;;;;;4952618;28;20063;-76
2024/03/25 07:31:32;;;;;;;;;;;6.50;99.90;;;;;;4967281;28;20008;-77
2024/03/25 07:33:57;;;;;;;;;;;6.70;99.90;;;;;;4950240;28;20060;-77
2024/03/25 07:36:23;;;;;;;;;;;6.80;99.90;;;;;;4938738;28;19918;-76
2024/03/25 07:38:48;;;;;;;;;;;6.90;99.90;;;;;;4958340;28;19922;-77
2024/03/25 07:41:14;;;;;;;;;;;6.90;99.90;;;;;;4942715;28;20048;-78
2024/03/25 07:43:39;;;;;;;;;;;7.00;99.90;;;;;;4955644;28;19924;-78
2024/03/25 07:46:05;;;;;;;;;;;7.00;99.90;;;;;;4956031;28;19917;-78
2024/03/25 07:48:31;;;;;;;;;;;6.90;99.90;;;;;;4932889;28;19922;-75
2024/03/25 07:50:56;;;;;;;;;;;6.90;99.90;;;;;;4948232;28;19931;-76
2024/03/25 07:53:22;;;;;;;;;;;7.00;99.90;;;;;;4956332;28;19922;-76
2024/03/25 07:55:47;;;;;;;;;;;7.30;99.90;;;;;;4936412;28;20354;-77
2024/03/25 07:58:13;;;;;;;;;;;7.10;99.90;;;;;;4960114;28;19926;-76
2024/03/25 08:00:38;;;;;;;;;;;7.20;99.90;;;;;;4955959;28;19918;-76
2024/03/25 08:03:04;;;;;;;;;;;7.20;99.90;;;;;;4950905;28;20399;-76
2024/03/25 08:05:30;;;;;;;;;;;7.20;99.90;;;;;;4950941;28;19970;-76
2024/03/25 08:07:55;;;;;;;;;;;7.10;99.90;;;;;;4957211;28;20390;-76
2024/03/25 08:10:21;;;;;;;;;;;7.10;99.90;;;;;;4920318;28;19992;-76
2024/03/25 08:12:46;;;;;;;;;;;7.00;99.90;;;;;;4933537;28;19926;-76
2024/03/25 08:15:13;;;;;;;;;;;7.30;99.90;;;;;;4955082;28;19932;-76
2024/03/25 08:17:39;;;;;;;;;;;7.00;99.90;;;;;;4956045;28;20451;-76
2024/03/25 08:20:05;;;;;;;;;;;7.00;99.90;;;;;;4943406;28;19922;-75
2024/03/25 08:22:30;;;;;;;;;;;7.10;99.90;;;;;;4935279;28;19922;-76
2024/03/25 08:24:56;;;;;;;;;;;7.20;99.90;;;;;;4933673;28;20410;-76
2024/03/25 08:27:22;;;;;;;;;;;7.20;99.90;;;;;;4950469;28;19928;-76
2024/03/25 08:29:48;;;;;;;;;;;7.30;99.90;;;;;;4939965;28;19929;-75
2024/03/25 08:32:14;;;;;;;;;;;7.40;99.90;;;;;;4946947;28;19937;-76
2024/03/25 08:34:40;;;;;;;;;;;7.50;99.90;;;;;;4914124;28;1193110;-76
2024/03/25 08:37:05;;;;;;;;;;;7.70;99.90;;;;;;4970933;28;20378;-76
2024/03/25 08:39:31;;;;;;;;;;;7.90;99.90;;;;;;4975855;28;19926;-76
2024/03/25 08:41:56;;;;;;;;;;;8.10;99.90;;;;;;4970979;28;19922;-76
2024/03/25 08:44:22;;;;;;;;;;;8.30;99.90;;;;;;4969584;28;19927;-76
2024/03/25 08:46:48;;;;;;;;;;;8.50;99.90;;;;;;4971814;28;19925;-76
2024/03/25 08:49:13;;;;;;;;;;;8.50;99.90;;;;;;4942643;28;20268;-75
2024/03/25 08:51:39;;;;;;;;;;;8.50;99.90;;;;;;4975334;28;19924;-76
2024/03/25 08:54:04;;;;;;;;;;;8.40;99.90;;;;;;4958686;28;20110;-76
2024/03/25 08:56:30;;;;;;;;;;;8.40;99.90;;;;;;4976817;28;19922;-76
2024/03/25 08:58:57;;;;;;;;;;;8.40;99.90;;;;;;4960384;28;19933;-76
2024/03/25 09:01:24;;;;;;;;;;;8.30;99.90;;;;;;4981636;28;20056;-76
2024/03/25 09:03:50;;;;;;;;;;;8.10;99.90;;;;;;4981515;28;19926;-76
2024/03/25 09:06:16;;;;;;;;;;;7.90;99.90;;;;;;4978916;28;19930;-76
2024/03/25 09:11:26;;;;;;;;;;;7.80;99.90;;;;;;4979955;28;20011;-77
2024/03/25 09:13:52;;;;;;;;;;;7.90;99.90;;;;;;4976756;28;20003;-77
2024/03/25 09:16:18;;;;;;;;;;;8.00;99.90;;;;;;4963004;28;19921;-77
2024/03/25 09:18:44;;;;;;;;;;;8.10;99.90;;;;;;4970816;28;19918;-77
2024/03/25 09:21:09;;;;;;;;;;;8.00;99.90;;;;;;4971282;28;19924;-77
2024/03/25 09:23:35;;;;;;;;;;;8.00;99.90;;;;;;4959631;28;19932;-78
2024/03/25 09:26:00;;;;;;;;;;;8.10;99.90;;;;;;4971048;28;20003;-77
2024/03/25 09:28:26;;;;;;;;;;;8.10;99.90;;;;;;4955665;28;19937;-77
2024/03/25 09:30:51;;;;;;;;;;;8.10;99.90;;;;;;4971380;28;19926;-77
2024/03/25 09:33:17;;;;;;;;;;;8.10;99.90;;;;;;4957638;28;19921;-77
2024/03/25 09:35:43;;;;;;;;;;;8.20;99.90;;;;;;4941311;28;20079;-77
2024/03/25 09:38:08;;;;;;;;;;;8.20;99.90;;;;;;4980700;28;19999;-78
2024/03/25 09:40:35;;;;;;;;;;;8.40;99.90;;;;;;4971812;28;19917;-77
2024/03/25 09:43:02;;;;;;;;;;;8.70;99.90;;;;;;4973846;28;19918;-77
2024/03/25 09:45:29;;;;;;;;;;;9.00;99.90;;;;;;4973115;28;20032;-78
2024/03/25 09:47:55;;;;;;;;;;;9.30;99.90;;;;;;4969263;28;20302;-78
2024/03/25 09:50:21;;;;;;;;;;;9.30;99.90;;;;;;4991090;28;19924;-77
2024/03/25 09:52:47;;;;;;;;;;;9.30;99.90;;;;;;4972679;28;20255;-77
2024/03/25 09:55:12;;;;;;;;;;;9.30;99.90;;;;;;4961217;28;19922;-78
2024/03/25 09:57:38;;;;;;;;;;;9.40;99.90;;;;;;4964501;28;20251;-78
2024/03/25 10:00:08;;;;;;;;;;;9.50;99.90;;;;;;4971089;28;19917;-78
2024/03/25 10:02:36;;;;;;;;;;;9.70;99.90;;;;;;4973043;28;19929;-78
2024/03/25 10:05:02;;;;;;;;;;;9.80;99.90;;;;;;4983143;28;20029;-78
2024/03/25 10:07:28;;;;;;;;;;;10.00;99.90;;;;;;4973843;28;19933;-77
2024/03/25 10:09:54;;;;;;;;;;;10.20;99.90;;;;;;4954332;28;20371;-77
2024/03/25 10:12:19;;;;;;;;;;;10.30;99.90;;;;;;4969054;28;19960;-77
2024/03/25 10:14:45;;;;;;;;;;;10.20;99.90;;;;;;4955917;28;20011;-77
2024/03/25 10:17:11;;;;;;;;;;;10.00;99.90;;;;;;4969549;28;19933;-76
2024/03/25 10:19:37;;;;;;;;;;;9.70;99.90;;;;;;4970967;28;19922;-77
2024/03/25 10:22:06;;;;;;;;;;;9.30;99.90;;;;;;4971786;28;19936;-76
2024/03/25 10:24:42;;;;;;;;;;;9.10;99.90;;;;;;4970877;28;20066;-76
2024/03/25 10:27:17;;;;;;;;;;;8.90;99.90;;;;;;4972824;28;19960;-76
2024/03/25 10:29:42;;;;;;;;;;;8.70;99.90;;;;;;4972016;28;20409;-75
2024/03/25 10:32:08;;;;;;;;;;;8.60;99.90;;;;;;4972405;28;20068;-76
2024/03/25 10:34:33;;;;;;;;;;;8.70;99.90;;;;;;4954587;28;19925;-77
2024/03/25 10:37:01;;;;;;;;;;;8.50;99.90;;;;;;4967227;28;19996;-76
2024/03/25 10:39:27;;;;;;;;;;;8.50;99.90;;;;;;4966015;28;19925;-76
2024/03/25 10:41:56;;;;;;;;;;;8.50;99.90;;;;;;4974621;28;19918;-76
2024/03/25 10:44:23;;;;;;;;;;;8.60;99.90;;;;;;4975174;28;20275;-76
2024/03/25 10:46:51;;;;;;;;;;;8.70;99.90;;;;;;4955504;28;19929;-76
2024/03/25 10:49:23;;;;;;;;;;;8.70;99.90;;;;;;4969865;28;19917;-76
2024/03/25 10:51:49;;;;;;;;;;;8.90;99.90;;;;;;4969140;28;19926;-77
2024/03/25 10:54:16;;;;;;;;;;;8.90;99.90;;;;;;4971183;28;19918;-76
2024/03/25 10:56:43;;;;;;;;;;;8.90;99.90;;;;;;4955644;28;19937;-76
2024/03/25 10:59:10;;;;;;;;;;;9.00;99.90;;;;;;4972458;28;19918;-77
2024/03/25 11:01:36;;;;;;;;;;;9.20;99.90;;;;;;4954662;28;20044;-77
2024/03/25 11:04:05;;;;;;;;;;;9.30;99.90;;;;;;4942534;28;19984;-77
2024/03/25 11:06:31;;;;;;;;;;;9.30;99.90;;;;;;4954808;28;20384;-76
2024/03/25 11:08:58;;;;;;;;;;;9.50;99.90;;;;;;4963535;28;19973;-76
2024/03/25 11:11:23;;;;;;;;;;;9.60;99.90;;;;;;4969856;28;19953;-77
2024/03/25 11:13:49;;;;;;;;;;;9.90;99.90;;;;;;4948405;28;19987;-76
2024/03/25 11:16:26;;;;;;;;;;;10.10;99.90;;;;;;4970651;28;20351;-77
2024/03/25 11:18:51;;;;;;;;;;;10.40;99.90;;;;;;4965875;28;19996;-77
2024/03/25 11:21:24;;;;;;;;;;;10.90;99.90;;;;;;4939227;28;20016;-77
2024/03/25 11:23:50;;;;;;;;;;;11.10;99.90;;;;;;4984706;28;20241;-76
2024/03/25 11:26:19;;;;;;;;;;;11.20;99.90;;;;;;4965507;28;19941;-76
2024/03/25 11:28:45;;;;;;;;;;;11.20;99.90;;;;;;4974046;28;19933;-78
2024/03/25 11:31:11;;;;;;;;;;;11.30;99.90;;;;;;4956269;28;19922;-78
2024/03/25 11:33:38;;;;;;;;;;;11.50;99.90;;;;;;4974571;28;19944;-78
2024/03/25 11:36:04;;;;;;;;;;;11.60;99.90;;;;;;4972433;28;19929;-78
2024/03/25 11:38:29;;;;;;;;;;;11.70;99.90;;;;;;4975537;28;20386;-78
2024/03/25 11:40:55;;;;;;;;;;;11.40;99.90;;;;;;4972144;28;19921;-78
2024/03/25 11:43:22;;;;;;;;;;;11.10;99.90;;;;;;4961424;28;19947;-77
2024/03/25 11:45:47;;;;;;;;;;;10.80;99.90;;;;;;4974678;28;20010;-78
2024/03/25 11:48:16;;;;;;;;;;;10.50;99.90;;;;;;4967974;28;19934;-77
2024/03/25 11:50:45;;;;;;;;;;;10.40;99.90;;;;;;4962150;28;19918;-78
2024/03/25 11:53:10;;;;;;;;;;;10.30;99.90;;;;;;4977159;28;20402;-78
2024/03/25 11:55:36;;;;;;;;;;;10.10;99.90;;;;;;4960028;28;20035;-78
2024/03/25 11:58:02;;;;;;;;;;;10.00;99.90;;;;;;4986033;28;19940;-78
2024/03/25 12:00:28;;;;;;;;;;;10.00;99.90;;;;;;4963948;28;20371;-78
2024/03/25 12:02:54;;;;;;;;;;;9.90;99.90;;;;;;4960336;28;20294;-78
2024/03/25 12:05:20;;;;;;;;;;;10.10;99.90;;;;;;4943761;28;19940;-78
2024/03/25 12:07:45;;;;;;;;;;;10.00;99.90;;;;;;4945644;28;19930;-78
2024/03/25 12:12:55;;;;;;;;;;;10.00;99.90;;;;;;4970230;28;19988;-78
2024/03/25 12:15:21;;;;;;;;;;;10.10;99.90;;;;;;4978079;28;19929;-78
2024/03/25 12:17:47;;;;;;;;;;;10.20;99.90;;;;;;4947802;28;19925;-78
2024/03/25 12:20:13;;;;;;;;;;;10.30;99.90;;;;;;4974381;28;19917;-78
2024/03/25 12:22:40;;;;;;;;;;;10.20;99.90;;;;;;4964740;28;19965;-78
2024/03/25 12:25:06;;;;;;;;;;;10.30;99.90;;;;;;4949414;28;19921;-78
2024/03/25 12:27:32;;;;;;;;;;;10.30;99.90;;;;;;4961344;28;20382;-77
2024/03/25 12:29:59;;;;;;;;;;;10.30;99.90;;;;;;4960439;28;19922;-77
2024/03/25 12:32:51;;;;;;;;;;;10.40;99.90;;;;;;4962375;28;19921;-77
2024/03/25 12:35:17;;;;;;;;;;;10.20;99.90;;;;;;4969764;28;19941;-77
2024/03/25 12:37:44;;;;;;;;;;;10.10;99.90;;;;;;4961815;28;19926;-77
2024/03/25 12:40:10;;;;;;;;;;;10.10;99.90;;;;;;4929237;28;19926;-77
2024/03/25 12:42:36;;;;;;;;;;;10.00;99.90;;;;;;4926327;28;20681;-76
2024/03/25 12:45:03;;;;;;;;;;;10.00;99.90;;;;;;4943332;28;19921;-76
2024/03/25 12:47:29;;;;;;;;;;;10.00;99.90;;;;;;4945349;28;19926;-75
2024/03/25 12:49:54;;;;;;;;;;;10.10;99.90;;;;;;4940947;28;19926;-76
2024/03/25 12:52:21;;;;;;;;;;;10.20;99.90;;;;;;4937636;28;19925;-76
2024/03/25 12:54:46;;;;;;;;;;;10.40;99.90;;;;;;4942970;28;19927;-76
2024/03/25 12:57:12;;;;;;;;;;;10.60;99.90;;;;;;4914646;28;19934;-76
2024/03/25 12:59:38;;;;;;;;;;;10.70;99.90;;;;;;4951107;28;19933;-76
2024/03/25 13:02:03;;;;;;;;;;;10.80;99.90;;;;;;4953781;28;19922;-76
2024/03/25 13:04:29;;;;;;;;;;;10.80;99.90;;;;;;4955530;28;19958;-75
2024/03/25 13:06:54;;;;;;;;;;;11.00;99.90;;;;;;4935661;28;19922;-76
2024/03/25 13:09:20;;;;;;;;;;;11.10;99.90;;;;;;4952898;28;19926;-76
2024/03/25 13:11:46;;;;;;;;;;;11.20;99.90;;;;;;4939228;28;20371;-76
2024/03/25 13:14:12;;;;;;;;;;;11.30;99.90;;;;;;4934149;28;19924;-76
2024/03/25 13:16:38;;;;;;;;;;;11.30;99.90;;;;;;4954175;28;19918;-76
2024/03/25 13:19:04;;;;;;;;;;;11.50;99.90;;;;;;4936853;28;20284;-76
2024/03/25 13:21:29;;;;;;;;;;;11.60;99.90;;;;;;4972199;28;19928;-76
2024/03/25 13:23:55;;;;;;;;;;;11.80;99.90;;;;;;4955246;28;19921;-75
2024/03/25 13:26:21;;;;;;;;;;;11.80;99.90;;;;;;4935605;28;19922;-76
2024/03/25 13:28:46;;;;;;;;;;;11.90;99.90;;;;;;4936334;28;20418;-76
2024/03/25 13:31:12;;;;;;;;;;;12.00;99.90;;;;;;4956719;28;19962;-76
2024/03/25 13:33:38;;;;;;;;;;;12.00;99.90;;;;;;4954542;28;19972;-75
2024/03/25 13:36:07;;;;;;;;;;;12.00;99.90;;;;;;4939292;28;20347;-76
2024/03/25 13:38:33;;;;;;;;;;;11.90;99.90;;;;;;4929806;28;19953;-76
2024/03/25 13:41:02;;;;;;;;;;;11.80;99.90;;;;;;4939709;28;20029;-76
2024/03/25 13:43:28;;;;;;;;;;;11.60;99.90;;;;;;4942393;28;20323;-76
2024/03/25 13:45:53;;;;;;;;;;;11.60;99.90;;;;;;4940701;28;19957;-75
2024/03/25 13:48:19;;;;;;;;;;;11.60;99.90;;;;;;4943492;28;20144;-76
2024/03/25 13:50:44;;;;;;;;;;;11.50;99.90;;;;;;4948250;28;19981;-77
2024/03/25 13:53:10;;;;;;;;;;;11.50;99.90;;;;;;4938519;28;20298;-77
2024/03/25 13:55:36;;;;;;;;;;;11.60;99.90;;;;;;4930840;28;19993;-77
2024/03/25 13:58:01;;;;;;;;;;;11.60;99.90;;;;;;4965995;28;19989;-77
2024/03/25 14:00:28;;;;;;;;;;;11.70;99.90;;;;;;4953000;28;19922;-76
2024/03/25 14:02:54;;;;;;;;;;;11.80;99.90;;;;;;4932433;28;19925;-77
2024/03/25 14:05:23;;;;;;;;;;;12.10;99.90;;;;;;4937188;28;20351;-77
2024/03/25 14:07:49;;;;;;;;;;;12.60;99.90;;;;;;4934125;28;20346;-77
2024/03/25 14:10:14;;;;;;;;;;;12.90;99.90;;;;;;4950193;28;20001;-77
2024/03/25 14:12:40;;;;;;;;;;;12.90;99.90;;;;;;4952906;28;19922;-77
2024/03/25 14:15:06;;;;;;;;;;;12.80;99.90;;;;;;4951963;28;20383;-77
2024/03/25 14:17:32;;;;;;;;;;;12.80;99.90;;;;;;4947487;28;19976;-77
2024/03/25 14:19:57;;;;;;;;;;;13.20;99.90;;;;;;4948174;28;19926;-77
2024/03/25 14:22:23;;;;;;;;;;;13.70;99.90;;;;;;4950689;28;19918;-77
2024/03/25 14:24:49;;;;;;;;;;;14.10;99.90;;;;;;4949192;28;19973;-77
2024/03/25 14:27:14;;;;;;;;;;;13.90;99.90;;;;;;4936630;28;20347;-77
2024/03/25 14:29:40;;;;;;;;;;;13.50;99.90;;;;;;4951006;28;19945;-77